Piet Retief Airport

Jump to: basic info | weather | runways | comments

Related pages: nearby airports | nearby navaids | notams | map

Basic information (top)

Codes: FAPF
Location: lon -26.996901, lat 30.840799, elev 4,423 ft / 1,348 m msl
Status: small_airport

Weather (top)

Current conditions for Nhlangano Airport 21nm (40km) ESE (rec'd 2014/04/16 13:00Z):

FDNH 161300Z AUTO 00000KT //// // ////// ///// Q////

Airport forecast for Matsapha Airport 38nm (70km) NE (rec'd 2012/10/31 09:00Z):

TAF FDMS 310700Z 3109/3118 16015G25KT 9999 SCT035 PROB30 3112/3118 7000 -TSRA BKN030 SCT035CB

Runways (top)

15/33: 4,498 ft (1,371 m) — surface unknown — not lighted

Latest comments (top)

infor: i want to be a pilot,and i want more ... [read]

More... (top)

See also NOTAMs and nearby airports and navaids, or visit the Piet Retief Airport page at the main OurAirports website..